sensor_id;sensor_type;location;lat;lon;timestamp;P1;durP1;ratioP1;P2;durP2;ratioP2
15944;SDS011;30172;48.832;8.732;2023-06-22T00:01:17;10.70;;;9.63;;
15944;SDS011;30172;48.832;8.732;2023-06-22T00:03:42;10.52;;;9.20;;
15944;SDS011;30172;48.832;8.732;2023-06-22T00:06:07;11.88;;;9.82;;
15944;SDS011;30172;48.832;8.732;2023-06-22T00:08:33;10.95;;;9.75;;
15944;SDS011;30172;48.832;8.732;2023-06-22T00:10:58;10.93;;;9.82;;
15944;SDS011;30172;48.832;8.732;2023-06-22T00:13:23;11.02;;;9.82;;
15944;SDS011;30172;48.832;8.732;2023-06-22T00:15:49;10.73;;;9.63;;
15944;SDS011;30172;48.832;8.732;2023-06-22T00:18:14;9.77;;;8.77;;
15944;SDS011;30172;48.832;8.732;2023-06-22T00:20:41;13.35;;;10.27;;
15944;SDS011;30172;48.832;8.732;2023-06-22T00:23:06;10.45;;;9.43;;
15944;SDS011;30172;48.832;8.732;2023-06-22T00:25:35;11.40;;;9.70;;
15944;SDS011;30172;48.832;8.732;2023-06-22T00:28:01;10.43;;;9.32;;
15944;SDS011;30172;48.832;8.732;2023-06-22T00:30:27;11.23;;;9.20;;
15944;SDS011;30172;48.832;8.732;2023-06-22T00:32:52;10.40;;;9.30;;
15944;SDS011;30172;48.832;8.732;2023-06-22T00:35:18;13.82;;;9.77;;
15944;SDS011;30172;48.832;8.732;2023-06-22T00:37:43;11.35;;;10.13;;
15944;SDS011;30172;48.832;8.732;2023-06-22T00:40:09;11.18;;;10.05;;
15944;SDS011;30172;48.832;8.732;2023-06-22T00:42:39;11.65;;;9.40;;
15944;SDS011;30172;48.832;8.732;2023-06-22T00:45:05;10.75;;;9.52;;
15944;SDS011;30172;48.832;8.732;2023-06-22T00:47:31;10.65;;;9.13;;
15944;SDS011;30172;48.832;8.732;2023-06-22T00:49:56;9.88;;;8.70;;
15944;SDS011;30172;48.832;8.732;2023-06-22T00:52:22;10.45;;;9.30;;
15944;SDS011;30172;48.832;8.732;2023-06-22T00:54:52;11.23;;;9.45;;
15944;SDS011;30172;48.832;8.732;2023-06-22T00:57:17;11.38;;;9.75;;
15944;SDS011;30172;48.832;8.732;2023-06-22T00:59:47;10.57;;;9.25;;
15944;SDS011;30172;48.832;8.732;2023-06-22T01:02:13;10.93;;;9.45;;
15944;SDS011;30172;48.832;8.732;2023-06-22T01:04:39;10.70;;;8.63;;
15944;SDS011;30172;48.832;8.732;2023-06-22T01:07:10;9.77;;;8.88;;
15944;SDS011;30172;48.832;8.732;2023-06-22T01:09:52;10.25;;;9.23;;
15944;SDS011;30172;48.832;8.732;2023-06-22T01:12:24;10.10;;;9.10;;
15944;SDS011;30172;48.832;8.732;2023-06-22T01:14:53;10.90;;;9.75;;
15944;SDS011;30172;48.832;8.732;2023-06-22T01:17:21;13.38;;;10.60;;
15944;SDS011;30172;48.832;8.732;2023-06-22T01:19:49;12.60;;;10.00;;
15944;SDS011;30172;48.832;8.732;2023-06-22T01:22:22;10.50;;;9.40;;
15944;SDS011;30172;48.832;8.732;2023-06-22T01:24:55;11.07;;;9.60;;
15944;SDS011;30172;48.832;8.732;2023-06-22T01:27:39;11.73;;;9.57;;
15944;SDS011;30172;48.832;8.732;2023-06-22T01:30:10;12.27;;;11.00;;
15944;SDS011;30172;48.832;8.732;2023-06-22T01:32:37;10.77;;;9.57;;
15944;SDS011;30172;48.832;8.732;2023-06-22T01:35:04;13.10;;;10.23;;
15944;SDS011;30172;48.832;8.732;2023-06-22T01:37:31;12.18;;;9.85;;
15944;SDS011;30172;48.832;8.732;2023-06-22T01:39:58;10.40;;;9.23;;
15944;SDS011;30172;48.832;8.732;2023-06-22T01:42:24;10.55;;;9.43;;
15944;SDS011;30172;48.832;8.732;2023-06-22T01:44:50;12.60;;;10.07;;
15944;SDS011;30172;48.832;8.732;2023-06-22T01:47:17;10.63;;;9.55;;
15944;SDS011;30172;48.832;8.732;2023-06-22T01:49:42;10.65;;;9.57;;
15944;SDS011;30172;48.832;8.732;2023-06-22T01:52:08;12.48;;;9.63;;
15944;SDS011;30172;48.832;8.732;2023-06-22T01:54:33;15.77;;;10.70;;
15944;SDS011;30172;48.832;8.732;2023-06-22T01:56:59;11.75;;;10.25;;
15944;SDS011;30172;48.832;8.732;2023-06-22T01:59:34;14.80;;;9.88;;
15944;SDS011;30172;48.832;8.732;2023-06-22T02:02:06;11.13;;;9.98;;
15944;SDS011;30172;48.832;8.732;2023-06-22T02:04:37;11.70;;;9.93;;
15944;SDS011;30172;48.832;8.732;2023-06-22T02:07:15;10.25;;;8.90;;
15944;SDS011;30172;48.832;8.732;2023-06-22T02:09:43;12.35;;;10.20;;
15944;SDS011;30172;48.832;8.732;2023-06-22T02:12:10;10.90;;;9.80;;
15944;SDS011;30172;48.832;8.732;2023-06-22T02:14:36;12.13;;;9.57;;
15944;SDS011;30172;48.832;8.732;2023-06-22T02:17:03;9.68;;;8.77;;
15944;SDS011;30172;48.832;8.732;2023-06-22T02:19:32;10.68;;;9.77;;
15944;SDS011;30172;48.832;8.732;2023-06-22T02:22:00;11.93;;;10.35;;
15944;SDS011;30172;48.832;8.732;2023-06-22T02:24:26;11.18;;;9.98;;
15944;SDS011;30172;48.832;8.732;2023-06-22T02:26:51;12.93;;;11.32;;
15944;SDS011;30172;48.832;8.732;2023-06-22T02:29:16;12.18;;;10.98;;
15944;SDS011;30172;48.832;8.732;2023-06-22T02:31:42;12.93;;;11.45;;
15944;SDS011;30172;48.832;8.732;2023-06-22T02:34:08;12.27;;;10.43;;
15944;SDS011;30172;48.832;8.732;2023-06-22T02:36:33;13.90;;;11.18;;
15944;SDS011;30172;48.832;8.732;2023-06-22T02:38:59;16.88;;;11.38;;
15944;SDS011;30172;48.832;8.732;2023-06-22T02:41:26;11.13;;;10.02;;
15944;SDS011;30172;48.832;8.732;2023-06-22T02:43:52;13.68;;;10.65;;
15944;SDS011;30172;48.832;8.732;2023-06-22T02:46:17;11.27;;;10.23;;
15944;SDS011;30172;48.832;8.732;2023-06-22T02:48:42;10.95;;;9.88;;
15944;SDS011;30172;48.832;8.732;2023-06-22T02:51:08;12.63;;;11.32;;
15944;SDS011;30172;48.832;8.732;2023-06-22T02:53:33;12.38;;;10.90;;
15944;SDS011;30172;48.832;8.732;2023-06-22T02:56:00;14.57;;;13.07;;
15944;SDS011;30172;48.832;8.732;2023-06-22T02:58:31;15.63;;;13.00;;
15944;SDS011;30172;48.832;8.732;2023-06-22T03:01:03;14.10;;;12.68;;
15944;SDS011;30172;48.832;8.732;2023-06-22T03:03:32;18.00;;;12.85;;
15944;SDS011;30172;48.832;8.732;2023-06-22T03:05:57;13.57;;;12.13;;
15944;SDS011;30172;48.832;8.732;2023-06-22T03:08:22;12.40;;;11.20;;
15944;SDS011;30172;48.832;8.732;2023-06-22T03:10:47;14.27;;;12.60;;
15944;SDS011;30172;48.832;8.732;2023-06-22T03:13:13;15.93;;;13.27;;
15944;SDS011;30172;48.832;8.732;2023-06-22T03:15:38;17.10;;;12.75;;
15944;SDS011;30172;48.832;8.732;2023-06-22T03:18:03;13.75;;;12.35;;
15944;SDS011;30172;48.832;8.732;2023-06-22T03:20:30;14.23;;;12.85;;
15944;SDS011;30172;48.832;8.732;2023-06-22T03:22:58;13.57;;;12.18;;
15944;SDS011;30172;48.832;8.732;2023-06-22T03:25:24;14.52;;;11.95;;
15944;SDS011;30172;48.832;8.732;2023-06-22T03:27:49;15.70;;;12.30;;
15944;SDS011;30172;48.832;8.732;2023-06-22T03:30:14;15.40;;;13.38;;
15944;SDS011;30172;48.832;8.732;2023-06-22T03:32:40;13.23;;;11.93;;
15944;SDS011;30172;48.832;8.732;2023-06-22T03:35:05;12.05;;;10.85;;
15944;SDS011;30172;48.832;8.732;2023-06-22T03:37:31;12.77;;;11.60;;
15944;SDS011;30172;48.832;8.732;2023-06-22T03:39:56;13.70;;;12.27;;
15944;SDS011;30172;48.832;8.732;2023-06-22T03:42:22;14.88;;;13.27;;
15944;SDS011;30172;48.832;8.732;2023-06-22T03:44:47;15.35;;;13.85;;
15944;SDS011;30172;48.832;8.732;2023-06-22T03:47:12;20.00;;;13.63;;
15944;SDS011;30172;48.832;8.732;2023-06-22T03:49:38;15.63;;;12.90;;
15944;SDS011;30172;48.832;8.732;2023-06-22T03:52:04;13.25;;;11.90;;
15944;SDS011;30172;48.832;8.732;2023-06-22T03:54:30;13.57;;;12.23;;
15944;SDS011;30172;48.832;8.732;2023-06-22T03:56:58;13.38;;;12.07;;
15944;SDS011;30172;48.832;8.732;2023-06-22T03:59:24;13.38;;;11.80;;
15944;SDS011;30172;48.832;8.732;2023-06-22T04:01:50;13.65;;;11.38;;
15944;SDS011;30172;48.832;8.732;2023-06-22T04:04:15;12.98;;;11.55;;
15944;SDS011;30172;48.832;8.732;2023-06-22T04:06:42;12.63;;;11.43;;
15944;SDS011;30172;48.832;8.732;2023-06-22T04:09:07;14.13;;;10.48;;
15944;SDS011;30172;48.832;8.732;2023-06-22T04:11:32;13.20;;;11.38;;
15944;SDS011;30172;48.832;8.732;2023-06-22T04:13:58;11.32;;;10.15;;
15944;SDS011;30172;48.832;8.732;2023-06-22T04:16:23;11.38;;;10.27;;
15944;SDS011;30172;48.832;8.732;2023-06-22T04:18:48;14.70;;;10.70;;
15944;SDS011;30172;48.832;8.732;2023-06-22T04:21:14;12.02;;;9.77;;
15944;SDS011;30172;48.832;8.732;2023-06-22T04:23:39;10.98;;;9.48;;
15944;SDS011;30172;48.832;8.732;2023-06-22T04:26:05;12.23;;;10.45;;
15944;SDS011;30172;48.832;8.732;2023-06-22T04:28:30;11.30;;;10.15;;
15944;SDS011;30172;48.832;8.732;2023-06-22T04:31:00;11.43;;;9.35;;
15944;SDS011;30172;48.832;8.732;2023-06-22T04:33:28;10.57;;;9.55;;
15944;SDS011;30172;48.832;8.732;2023-06-22T04:35:54;10.52;;;9.50;;
15944;SDS011;30172;48.832;8.732;2023-06-22T04:38:22;10.68;;;9.57;;
15944;SDS011;30172;48.832;8.732;2023-06-22T04:40:47;10.30;;;9.10;;
15944;SDS011;30172;48.832;8.732;2023-06-22T04:43:13;11.77;;;9.55;;
15944;SDS011;30172;48.832;8.732;2023-06-22T04:45:38;10.82;;;8.68;;
15944;SDS011;30172;48.832;8.732;2023-06-22T04:48:04;11.52;;;9.18;;
15944;SDS011;30172;48.832;8.732;2023-06-22T04:50:30;11.80;;;9.20;;
15944;SDS011;30172;48.832;8.732;2023-06-22T04:52:55;9.55;;;8.65;;
15944;SDS011;30172;48.832;8.732;2023-06-22T04:55:21;10.95;;;8.20;;
15944;SDS011;30172;48.832;8.732;2023-06-22T04:57:46;10.90;;;9.18;;
15944;SDS011;30172;48.832;8.732;2023-06-22T05:00:16;12.55;;;9.40;;
15944;SDS011;30172;48.832;8.732;2023-06-22T05:02:42;8.98;;;8.07;;
15944;SDS011;30172;48.832;8.732;2023-06-22T05:05:09;11.85;;;8.55;;
15944;SDS011;30172;48.832;8.732;2023-06-22T05:07:38;10.20;;;8.52;;
15944;SDS011;30172;48.832;8.732;2023-06-22T05:10:07;8.85;;;7.95;;
15944;SDS011;30172;48.832;8.732;2023-06-22T05:12:33;9.98;;;8.75;;
15944;SDS011;30172;48.832;8.732;2023-06-22T05:14:58;9.13;;;8.18;;
15944;SDS011;30172;48.832;8.732;2023-06-22T05:17:24;11.73;;;8.85;;
15944;SDS011;30172;48.832;8.732;2023-06-22T05:19:50;9.98;;;7.95;;
15944;SDS011;30172;48.832;8.732;2023-06-22T05:22:15;9.30;;;8.25;;
15944;SDS011;30172;48.832;8.732;2023-06-22T05:24:40;11.00;;;9.30;;
15944;SDS011;30172;48.832;8.732;2023-06-22T05:27:06;10.93;;;9.20;;
15944;SDS011;30172;48.832;8.732;2023-06-22T05:29:32;9.20;;;8.20;;
15944;SDS011;30172;48.832;8.732;2023-06-22T05:31:59;12.27;;;9.30;;
15944;SDS011;30172;48.832;8.732;2023-06-22T05:34:27;9.00;;;8.10;;
15944;SDS011;30172;48.832;8.732;2023-06-22T05:36:59;9.02;;;8.13;;
15944;SDS011;30172;48.832;8.732;2023-06-22T05:39:24;8.60;;;7.70;;
15944;SDS011;30172;48.832;8.732;2023-06-22T05:41:50;10.18;;;8.48;;
15944;SDS011;30172;48.832;8.732;2023-06-22T05:44:16;9.65;;;8.07;;
15944;SDS011;30172;48.832;8.732;2023-06-22T05:46:44;9.02;;;8.13;;
15944;SDS011;30172;48.832;8.732;2023-06-22T05:49:14;9.95;;;7.70;;
15944;SDS011;30172;48.832;8.732;2023-06-22T05:51:40;8.52;;;7.63;;
15944;SDS011;30172;48.832;8.732;2023-06-22T05:54:05;8.93;;;8.02;;
15944;SDS011;30172;48.832;8.732;2023-06-22T05:56:31;9.43;;;7.43;;
15944;SDS011;30172;48.832;8.732;2023-06-22T05:58:56;8.85;;;7.10;;
15944;SDS011;30172;48.832;8.732;2023-06-22T06:01:22;8.25;;;7.22;;
15944;SDS011;30172;48.832;8.732;2023-06-22T06:03:47;8.38;;;7.40;;
15944;SDS011;30172;48.832;8.732;2023-06-22T06:06:14;9.80;;;6.97;;
15944;SDS011;30172;48.832;8.732;2023-06-22T06:08:42;7.90;;;7.10;;
15944;SDS011;30172;48.832;8.732;2023-06-22T06:11:07;8.88;;;7.95;;
15944;SDS011;30172;48.832;8.732;2023-06-22T06:13:33;9.82;;;7.65;;
15944;SDS011;30172;48.832;8.732;2023-06-22T06:15:58;8.75;;;6.75;;
15944;SDS011;30172;48.832;8.732;2023-06-22T06:18:24;8.75;;;7.28;;
15944;SDS011;30172;48.832;8.732;2023-06-22T06:20:49;8.55;;;7.38;;
15944;SDS011;30172;48.832;8.732;2023-06-22T06:23:15;10.73;;;7.88;;
15944;SDS011;30172;48.832;8.732;2023-06-22T06:25:40;9.93;;;7.03;;
15944;SDS011;30172;48.832;8.732;2023-06-22T06:28:05;7.90;;;6.47;;
15944;SDS011;30172;48.832;8.732;2023-06-22T06:30:31;10.38;;;6.80;;
15944;SDS011;30172;48.832;8.732;2023-06-22T06:32:56;11.18;;;7.35;;
15944;SDS011;30172;48.832;8.732;2023-06-22T06:35:22;7.03;;;6.32;;
15944;SDS011;30172;48.832;8.732;2023-06-22T06:37:48;8.85;;;7.15;;
15944;SDS011;30172;48.832;8.732;2023-06-22T06:40:14;8.18;;;6.53;;
15944;SDS011;30172;48.832;8.732;2023-06-22T06:42:41;7.88;;;5.97;;
15944;SDS011;30172;48.832;8.732;2023-06-22T06:45:09;8.93;;;6.10;;
15944;SDS011;30172;48.832;8.732;2023-06-22T06:47:35;10.10;;;6.80;;
15944;SDS011;30172;48.832;8.732;2023-06-22T06:50:00;6.40;;;5.80;;
15944;SDS011;30172;48.832;8.732;2023-06-22T06:52:26;10.65;;;6.47;;
15944;SDS011;30172;48.832;8.732;2023-06-22T06:54:51;9.50;;;6.45;;
15944;SDS011;30172;48.832;8.732;2023-06-22T06:57:17;10.07;;;6.47;;
15944;SDS011;30172;48.832;8.732;2023-06-22T06:59:43;8.70;;;6.43;;
15944;SDS011;30172;48.832;8.732;2023-06-22T07:02:08;8.57;;;6.65;;
15944;SDS011;30172;48.832;8.732;2023-06-22T07:04:33;7.82;;;5.85;;
15944;SDS011;30172;48.832;8.732;2023-06-22T07:07:00;8.10;;;6.70;;
15944;SDS011;30172;48.832;8.732;2023-06-22T07:09:26;8.45;;;6.00;;
15944;SDS011;30172;48.832;8.732;2023-06-22T07:11:51;9.60;;;6.22;;
15944;SDS011;30172;48.832;8.732;2023-06-22T07:14:17;8.00;;;6.38;;
15944;SDS011;30172;48.832;8.732;2023-06-22T07:16:42;9.45;;;7.10;;
15944;SDS011;30172;48.832;8.732;2023-06-22T07:19:07;9.70;;;6.65;;
15944;SDS011;30172;48.832;8.732;2023-06-22T07:21:33;7.72;;;5.75;;
15944;SDS011;30172;48.832;8.732;2023-06-22T07:23:58;7.72;;;6.60;;
15944;SDS011;30172;48.832;8.732;2023-06-22T07:26:23;7.53;;;5.75;;
15944;SDS011;30172;48.832;8.732;2023-06-22T07:28:49;9.20;;;6.65;;
15944;SDS011;30172;48.832;8.732;2023-06-22T07:31:15;10.40;;;7.18;;
15944;SDS011;30172;48.832;8.732;2023-06-22T07:33:41;9.25;;;6.57;;
15944;SDS011;30172;48.832;8.732;2023-06-22T07:36:06;9.40;;;6.20;;
15944;SDS011;30172;48.832;8.732;2023-06-22T07:38:33;7.10;;;6.10;;
15944;SDS011;30172;48.832;8.732;2023-06-22T07:40:59;10.15;;;6.82;;
15944;SDS011;30172;48.832;8.732;2023-06-22T07:43:24;8.40;;;6.68;;
15944;SDS011;30172;48.832;8.732;2023-06-22T07:45:50;14.57;;;6.40;;
15944;SDS011;30172;48.832;8.732;2023-06-22T07:48:22;9.98;;;6.55;;
15944;SDS011;30172;48.832;8.732;2023-06-22T07:50:47;9.50;;;6.38;;
15944;SDS011;30172;48.832;8.732;2023-06-22T07:53:13;9.57;;;6.25;;
15944;SDS011;30172;48.832;8.732;2023-06-22T07:55:38;8.23;;;6.00;;
15944;SDS011;30172;48.832;8.732;2023-06-22T07:58:04;9.55;;;5.78;;
15944;SDS011;30172;48.832;8.732;2023-06-22T08:00:29;10.32;;;6.18;;
15944;SDS011;30172;48.832;8.732;2023-06-22T08:02:54;8.68;;;6.10;;
15944;SDS011;30172;48.832;8.732;2023-06-22T08:05:20;11.63;;;6.65;;
15944;SDS011;30172;48.832;8.732;2023-06-22T08:07:45;9.95;;;6.20;;
15944;SDS011;30172;48.832;8.732;2023-06-22T08:10:11;13.07;;;6.13;;
15944;SDS011;30172;48.832;8.732;2023-06-22T08:12:37;11.00;;;5.43;;
15944;SDS011;30172;48.832;8.732;2023-06-22T08:15:03;8.90;;;6.18;;
15944;SDS011;30172;48.832;8.732;2023-06-22T08:17:29;12.27;;;6.72;;
15944;SDS011;30172;48.832;8.732;2023-06-22T08:19:56;10.77;;;5.93;;
15944;SDS011;30172;48.832;8.732;2023-06-22T08:22:21;10.73;;;6.20;;
15944;SDS011;30172;48.832;8.732;2023-06-22T08:24:47;13.43;;;6.03;;
15944;SDS011;30172;48.832;8.732;2023-06-22T08:27:12;8.70;;;5.80;;
15944;SDS011;30172;48.832;8.732;2023-06-22T08:29:38;10.50;;;6.15;;
15944;SDS011;30172;48.832;8.732;2023-06-22T08:32:04;12.93;;;6.25;;
15944;SDS011;30172;48.832;8.732;2023-06-22T08:34:30;11.32;;;6.20;;
15944;SDS011;30172;48.832;8.732;2023-06-22T08:36:55;11.68;;;6.35;;
15944;SDS011;30172;48.832;8.732;2023-06-22T08:39:21;13.00;;;6.38;;
15944;SDS011;30172;48.832;8.732;2023-06-22T08:41:47;9.80;;;6.13;;
15944;SDS011;30172;48.832;8.732;2023-06-22T08:44:12;12.23;;;6.68;;
15944;SDS011;30172;48.832;8.732;2023-06-22T08:46:38;10.20;;;6.50;;
15944;SDS011;30172;48.832;8.732;2023-06-22T08:49:05;11.85;;;6.20;;
15944;SDS011;30172;48.832;8.732;2023-06-22T08:51:31;12.35;;;6.50;;
15944;SDS011;30172;48.832;8.732;2023-06-22T08:53:56;10.32;;;6.43;;
15944;SDS011;30172;48.832;8.732;2023-06-22T08:56:22;10.65;;;6.22;;
15944;SDS011;30172;48.832;8.732;2023-06-22T08:58:47;8.00;;;6.07;;
15944;SDS011;30172;48.832;8.732;2023-06-22T09:01:12;10.55;;;6.28;;
15944;SDS011;30172;48.832;8.732;2023-06-22T09:03:40;11.98;;;6.22;;
15944;SDS011;30172;48.832;8.732;2023-06-22T09:06:05;12.77;;;6.60;;
15944;SDS011;30172;48.832;8.732;2023-06-22T09:08:31;10.57;;;6.85;;
15944;SDS011;30172;48.832;8.732;2023-06-22T09:10:56;10.18;;;6.32;;
15944;SDS011;30172;48.832;8.732;2023-06-22T09:13:22;10.63;;;6.05;;
15944;SDS011;30172;48.832;8.732;2023-06-22T09:15:47;10.55;;;6.60;;
15944;SDS011;30172;48.832;8.732;2023-06-22T09:18:13;8.68;;;6.15;;
15944;SDS011;30172;48.832;8.732;2023-06-22T09:20:38;11.52;;;6.68;;
15944;SDS011;30172;48.832;8.732;2023-06-22T09:23:04;8.68;;;6.28;;
15944;SDS011;30172;48.832;8.732;2023-06-22T09:25:29;10.68;;;6.32;;
15944;SDS011;30172;48.832;8.732;2023-06-22T09:27:54;10.95;;;6.10;;
15944;SDS011;30172;48.832;8.732;2023-06-22T09:30:20;8.60;;;5.93;;
15944;SDS011;30172;48.832;8.732;2023-06-22T09:32:45;12.43;;;6.32;;
15944;SDS011;30172;48.832;8.732;2023-06-22T09:35:11;12.40;;;6.63;;
15944;SDS011;30172;48.832;8.732;2023-06-22T09:37:38;12.88;;;7.05;;
15944;SDS011;30172;48.832;8.732;2023-06-22T09:40:03;17.55;;;6.53;;
15944;SDS011;30172;48.832;8.732;2023-06-22T09:42:33;11.68;;;6.05;;
15944;SDS011;30172;48.832;8.732;2023-06-22T09:44:59;12.00;;;6.65;;
15944;SDS011;30172;48.832;8.732;2023-06-22T09:47:26;11.50;;;6.28;;
15944;SDS011;30172;48.832;8.732;2023-06-22T09:49:51;8.40;;;6.35;;
15944;SDS011;30172;48.832;8.732;2023-06-22T09:52:17;10.15;;;6.43;;
15944;SDS011;30172;48.832;8.732;2023-06-22T09:54:42;11.20;;;6.20;;
15944;SDS011;30172;48.832;8.732;2023-06-22T09:57:07;12.55;;;6.47;;
15944;SDS011;30172;48.832;8.732;2023-06-22T09:59:33;13.95;;;6.07;;
15944;SDS011;30172;48.832;8.732;2023-06-22T10:01:58;10.80;;;6.45;;
15944;SDS011;30172;48.832;8.732;2023-06-22T10:04:24;10.68;;;6.00;;
15944;SDS011;30172;48.832;8.732;2023-06-22T10:06:50;11.30;;;6.65;;
15944;SDS011;30172;48.832;8.732;2023-06-22T10:09:15;14.27;;;6.72;;
15944;SDS011;30172;48.832;8.732;2023-06-22T10:11:41;8.73;;;6.35;;
15944;SDS011;30172;48.832;8.732;2023-06-22T10:14:06;12.18;;;6.68;;
15944;SDS011;30172;48.832;8.732;2023-06-22T10:16:31;14.25;;;6.53;;
15944;SDS011;30172;48.832;8.732;2023-06-22T10:18:57;11.23;;;6.18;;
15944;SDS011;30172;48.832;8.732;2023-06-22T10:21:23;11.48;;;6.63;;
15944;SDS011;30172;48.832;8.732;2023-06-22T10:23:48;11.75;;;6.40;;
15944;SDS011;30172;48.832;8.732;2023-06-22T10:26:13;12.18;;;6.50;;
15944;SDS011;30172;48.832;8.732;2023-06-22T10:28:39;9.85;;;6.38;;
15944;SDS011;30172;48.832;8.732;2023-06-22T10:31:04;10.13;;;6.45;;
15944;SDS011;30172;48.832;8.732;2023-06-22T10:33:29;10.18;;;6.53;;
15944;SDS011;30172;48.832;8.732;2023-06-22T10:35:55;11.48;;;7.10;;
15944;SDS011;30172;48.832;8.732;2023-06-22T10:38:20;11.75;;;6.78;;
15944;SDS011;30172;48.832;8.732;2023-06-22T10:40:46;11.20;;;6.80;;
15944;SDS011;30172;48.832;8.732;2023-06-22T10:43:11;11.80;;;6.70;;
15944;SDS011;30172;48.832;8.732;2023-06-22T10:45:36;10.68;;;7.15;;
15944;SDS011;30172;48.832;8.732;2023-06-22T10:48:01;11.18;;;6.50;;
15944;SDS011;30172;48.832;8.732;2023-06-22T10:50:27;10.80;;;6.80;;
15944;SDS011;30172;48.832;8.732;2023-06-22T10:52:53;11.73;;;6.75;;
15944;SDS011;30172;48.832;8.732;2023-06-22T10:55:19;10.30;;;6.47;;
15944;SDS011;30172;48.832;8.732;2023-06-22T10:57:44;9.23;;;6.70;;
15944;SDS011;30172;48.832;8.732;2023-06-22T11:00:12;12.68;;;6.75;;
15944;SDS011;30172;48.832;8.732;2023-06-22T11:02:38;12.45;;;6.43;;
15944;SDS011;30172;48.832;8.732;2023-06-22T11:05:04;14.65;;;6.93;;
15944;SDS011;30172;48.832;8.732;2023-06-22T11:07:30;14.32;;;6.40;;
15944;SDS011;30172;48.832;8.732;2023-06-22T11:09:56;14.20;;;6.57;;
15944;SDS011;30172;48.832;8.732;2023-06-22T11:12:21;12.35;;;6.97;;
15944;SDS011;30172;48.832;8.732;2023-06-22T11:14:46;12.10;;;6.97;;
15944;SDS011;30172;48.832;8.732;2023-06-22T11:17:12;12.40;;;6.85;;
15944;SDS011;30172;48.832;8.732;2023-06-22T11:19:37;13.75;;;7.13;;
15944;SDS011;30172;48.832;8.732;2023-06-22T11:22:04;8.45;;;6.22;;
15944;SDS011;30172;48.832;8.732;2023-06-22T11:24:29;10.48;;;6.72;;
15944;SDS011;30172;48.832;8.732;2023-06-22T11:26:55;9.63;;;5.93;;
15944;SDS011;30172;48.832;8.732;2023-06-22T11:29:20;13.93;;;6.72;;
15944;SDS011;30172;48.832;8.732;2023-06-22T11:31:45;11.75;;;6.47;;
15944;SDS011;30172;48.832;8.732;2023-06-22T11:34:11;12.23;;;6.50;;
15944;SDS011;30172;48.832;8.732;2023-06-22T11:36:36;10.52;;;6.30;;
15944;SDS011;30172;48.832;8.732;2023-06-22T11:39:02;11.10;;;6.32;;
15944;SDS011;30172;48.832;8.732;2023-06-22T11:41:27;13.73;;;6.80;;
15944;SDS011;30172;48.832;8.732;2023-06-22T11:43:52;11.85;;;6.63;;
15944;SDS011;30172;48.832;8.732;2023-06-22T11:46:18;13.68;;;6.65;;
15944;SDS011;30172;48.832;8.732;2023-06-22T11:48:43;13.18;;;6.82;;
15944;SDS011;30172;48.832;8.732;2023-06-22T11:51:09;12.48;;;6.30;;
15944;SDS011;30172;48.832;8.732;2023-06-22T11:53:34;12.30;;;7.00;;
15944;SDS011;30172;48.832;8.732;2023-06-22T11:56:00;10.55;;;6.55;;
15944;SDS011;30172;48.832;8.732;2023-06-22T11:58:26;12.25;;;6.75;;
15944;SDS011;30172;48.832;8.732;2023-06-22T12:00:51;10.07;;;6.90;;
15944;SDS011;30172;48.832;8.732;2023-06-22T12:03:17;10.90;;;7.13;;
15944;SDS011;30172;48.832;8.732;2023-06-22T12:05:46;13.80;;;7.38;;
15944;SDS011;30172;48.832;8.732;2023-06-22T12:08:11;14.38;;;6.97;;
15944;SDS011;30172;48.832;8.732;2023-06-22T12:10:38;13.80;;;7.30;;
15944;SDS011;30172;48.832;8.732;2023-06-22T12:13:03;12.40;;;7.20;;
15944;SDS011;30172;48.832;8.732;2023-06-22T12:15:29;10.15;;;6.43;;
15944;SDS011;30172;48.832;8.732;2023-06-22T12:17:54;13.82;;;6.50;;
15944;SDS011;30172;48.832;8.732;2023-06-22T12:20:19;11.50;;;6.75;;
15944;SDS011;30172;48.832;8.732;2023-06-22T12:22:45;9.95;;;6.38;;
15944;SDS011;30172;48.832;8.732;2023-06-22T12:25:10;15.27;;;6.88;;
15944;SDS011;30172;48.832;8.732;2023-06-22T12:27:36;12.30;;;6.55;;
15944;SDS011;30172;48.832;8.732;2023-06-22T12:30:02;12.90;;;6.32;;
15944;SDS011;30172;48.832;8.732;2023-06-22T12:32:28;14.07;;;6.97;;
15944;SDS011;30172;48.832;8.732;2023-06-22T12:34:53;14.77;;;6.90;;
15944;SDS011;30172;48.832;8.732;2023-06-22T12:37:18;9.65;;;6.78;;
15944;SDS011;30172;48.832;8.732;2023-06-22T12:39:44;13.10;;;6.70;;
15944;SDS011;30172;48.832;8.732;2023-06-22T12:42:09;10.38;;;6.78;;
15944;SDS011;30172;48.832;8.732;2023-06-22T12:44:37;11.80;;;7.13;;
15944;SDS011;30172;48.832;8.732;2023-06-22T12:47:03;11.10;;;6.80;;
15944;SDS011;30172;48.832;8.732;2023-06-22T12:49:28;9.05;;;6.43;;
15944;SDS011;30172;48.832;8.732;2023-06-22T12:51:53;12.45;;;6.93;;
15944;SDS011;30172;48.832;8.732;2023-06-22T12:54:19;14.18;;;6.47;;
15944;SDS011;30172;48.832;8.732;2023-06-22T12:56:44;13.07;;;6.97;;
15944;SDS011;30172;48.832;8.732;2023-06-22T12:59:10;13.85;;;7.07;;
15944;SDS011;30172;48.832;8.732;2023-06-22T13:01:35;13.27;;;6.63;;
15944;SDS011;30172;48.832;8.732;2023-06-22T13:04:00;15.60;;;7.53;;
15944;SDS011;30172;48.832;8.732;2023-06-22T13:06:26;13.52;;;7.35;;
15944;SDS011;30172;48.832;8.732;2023-06-22T13:08:51;10.90;;;7.75;;
15944;SDS011;30172;48.832;8.732;2023-06-22T13:11:16;12.32;;;6.57;;
15944;SDS011;30172;48.832;8.732;2023-06-22T13:13:43;12.85;;;6.60;;
15944;SDS011;30172;48.832;8.732;2023-06-22T13:16:09;11.23;;;7.07;;
15944;SDS011;30172;48.832;8.732;2023-06-22T13:18:34;13.60;;;6.97;;
15944;SDS011;30172;48.832;8.732;2023-06-22T13:21:01;12.48;;;6.95;;
15944;SDS011;30172;48.832;8.732;2023-06-22T13:23:26;15.38;;;7.90;;
15944;SDS011;30172;48.832;8.732;2023-06-22T13:25:52;11.07;;;7.43;;
15944;SDS011;30172;48.832;8.732;2023-06-22T13:28:17;11.13;;;7.85;;
15944;SDS011;30172;48.832;8.732;2023-06-22T13:30:43;13.70;;;8.25;;
15944;SDS011;30172;48.832;8.732;2023-06-22T13:33:11;12.70;;;8.48;;
15944;SDS011;30172;48.832;8.732;2023-06-22T13:35:36;11.45;;;7.38;;
15944;SDS011;30172;48.832;8.732;2023-06-22T13:38:02;12.13;;;8.20;;
15944;SDS011;30172;48.832;8.732;2023-06-22T13:40:28;11.23;;;7.05;;
15944;SDS011;30172;48.832;8.732;2023-06-22T13:42:53;12.73;;;6.82;;
15944;SDS011;30172;48.832;8.732;2023-06-22T13:45:18;11.77;;;4.97;;
15944;SDS011;30172;48.832;8.732;2023-06-22T13:47:45;14.00;;;4.82;;
15944;SDS011;30172;48.832;8.732;2023-06-22T13:50:10;13.70;;;4.55;;
15944;SDS011;30172;48.832;8.732;2023-06-22T13:52:37;10.32;;;4.25;;
15944;SDS011;30172;48.832;8.732;2023-06-22T13:55:03;12.55;;;4.63;;
15944;SDS011;30172;48.832;8.732;2023-06-22T13:57:29;13.23;;;4.75;;
15944;SDS011;30172;48.832;8.732;2023-06-22T13:59:55;15.63;;;4.30;;
15944;SDS011;30172;48.832;8.732;2023-06-22T14:02:20;12.82;;;4.10;;
15944;SDS011;30172;48.832;8.732;2023-06-22T14:04:45;14.00;;;4.07;;
15944;SDS011;30172;48.832;8.732;2023-06-22T14:07:11;12.43;;;4.78;;
15944;SDS011;30172;48.832;8.732;2023-06-22T14:09:37;11.73;;;4.25;;
15944;SDS011;30172;48.832;8.732;2023-06-22T14:12:06;9.05;;;3.97;;
15944;SDS011;30172;48.832;8.732;2023-06-22T14:14:32;10.15;;;3.80;;
15944;SDS011;30172;48.832;8.732;2023-06-22T14:16:58;11.55;;;4.18;;
15944;SDS011;30172;48.832;8.732;2023-06-22T14:19:23;12.90;;;4.00;;
15944;SDS011;30172;48.832;8.732;2023-06-22T14:21:49;8.77;;;3.47;;
15944;SDS011;30172;48.832;8.732;2023-06-22T14:24:14;11.98;;;3.75;;
15944;SDS011;30172;48.832;8.732;2023-06-22T14:26:39;15.13;;;3.90;;
15944;SDS011;30172;48.832;8.732;2023-06-22T14:29:05;11.68;;;4.22;;